Time;durP1;ratioP1;P1;durP2;ratioP2;P2;SDS_P1;SDS_P2;PMS_P1;PMS_P2;Temp;Humidity;BMP_temperature;BMP_pressure;BME280_temperature;BME280_humidity;BME280_pressure;Samples;Min_cycle;Max_cycle;Signal;HPM_P1;HPM_P2
2022/08/24 00:02:13;;;;;;;;;;;20.60;78.30;;;;;;5009698;28;19921;-68
2022/08/24 00:04:39;;;;;;;;;;;20.70;78.20;;;;;;5009467;28;19932;-69
2022/08/24 00:07:05;;;;;;;;;;;20.60;78.20;;;;;;5008235;28;19983;-68
2022/08/24 00:09:31;;;;;;;;;;;20.60;78.20;;;;;;5009243;28;19936;-69
2022/08/24 00:11:56;;;;;;;;;;;20.60;78.10;;;;;;4995187;28;19925;-68
2022/08/24 00:14:22;;;;;;;;;;;20.60;78.50;;;;;;5009222;28;19928;-68
2022/08/24 00:16:48;;;;;;;;;;;20.60;78.30;;;;;;5009434;28;20068;-68
2022/08/24 00:19:13;;;;;;;;;;;20.60;78.80;;;;;;5009140;28;19928;-69
2022/08/24 00:21:39;;;;;;;;;;;20.60;78.60;;;;;;5009385;28;20408;-69
2022/08/24 00:24:05;;;;;;;;;;;20.60;78.50;;;;;;5009682;28;19921;-69
2022/08/24 00:26:30;;;;;;;;;;;20.60;78.60;;;;;;5009315;28;20770;-69
2022/08/24 00:28:56;;;;;;;;;;;20.60;78.50;;;;;;5009242;28;20009;-69
2022/08/24 00:31:21;;;;;;;;;;;20.50;78.40;;;;;;5009052;28;19921;-69
2022/08/24 00:33:47;;;;;;;;;;;20.50;78.60;;;;;;5009211;28;19930;-69
2022/08/24 00:36:13;;;;;;;;;;;20.60;78.40;;;;;;5008969;28;20008;-68
2022/08/24 00:38:38;;;;;;;;;;;20.50;78.50;;;;;;5008871;28;20371;-69
2022/08/24 00:41:05;;;;;;;;;;;20.50;79.00;;;;;;5009195;28;19949;-68
2022/08/24 00:43:31;;;;;;;;;;;20.50;78.70;;;;;;5009034;28;19921;-69
2022/08/24 00:46:14;;;;;;;;;;;20.40;78.90;;;;;;5009439;28;19925;-68
2022/08/24 00:48:43;;;;;;;;;;;20.40;78.80;;;;;;5018556;28;20362;-69
2022/08/24 00:51:29;;;;;;;;;;;20.30;78.70;;;;;;5009582;28;19925;-69
2022/08/24 00:54:01;;;;;;;;;;;20.40;78.80;;;;;;5008727;28;20008;-68
2022/08/24 00:56:30;;;;;;;;;;;20.40;78.80;;;;;;5009496;28;20012;-68
2022/08/24 00:58:59;;;;;;;;;;;20.30;79.20;;;;;;5012242;28;19921;-69
2022/08/24 01:01:25;;;;;;;;;;;20.30;79.10;;;;;;5012601;28;19921;-69
2022/08/24 01:03:51;;;;;;;;;;;20.30;78.90;;;;;;5044866;23;19925;-68
2022/08/24 01:06:17;;;;;;;;;;;20.30;79.50;;;;;;5051075;28;19932;-69
2022/08/24 01:08:43;;;;;;;;;;;20.20;79.30;;;;;;5032601;28;19920;-69
2022/08/24 01:11:12;;;;;;;;;;;20.30;79.30;;;;;;5033730;28;19983;-68
2022/08/24 01:13:40;;;;;;;;;;;20.20;79.20;;;;;;5013610;28;19921;-69
2022/08/24 01:16:06;;;;;;;;;;;20.20;79.40;;;;;;5013491;28;19921;-69
2022/08/24 01:18:50;;;;;;;;;;;20.20;79.20;;;;;;5031501;28;20321;-68
2022/08/24 01:21:18;;;;;;;;;;;20.20;79.80;;;;;;5033620;28;19921;-68
2022/08/24 01:23:46;;;;;;;;;;;20.20;79.50;;;;;;5032172;28;19933;-68
2022/08/24 01:26:15;;;;;;;;;;;20.10;79.90;;;;;;5032314;28;19928;-68
2022/08/24 01:28:42;;;;;;;;;;;20.10;79.60;;;;;;5062172;28;20030;-68
2022/08/24 01:31:07;;;;;;;;;;;20.10;79.70;;;;;;5032754;28;19975;-68
2022/08/24 01:33:33;;;;;;;;;;;20.10;80.30;;;;;;5032891;28;19925;-68
2022/08/24 01:36:04;;;;;;;;;;;20.10;80.30;;;;;;5031876;28;19924;-68
2022/08/24 01:38:30;;;;;;;;;;;20.00;81.30;;;;;;5031297;28;19928;-69
2022/08/24 01:40:58;;;;;;;;;;;20.00;80.80;;;;;;5033555;28;19947;-68
2022/08/24 01:43:24;;;;;;;;;;;20.00;80.80;;;;;;5033821;28;19929;-68
2022/08/24 01:45:50;;;;;;;;;;;20.00;80.40;;;;;;5041398;28;20297;-68
2022/08/24 01:48:15;;;;;;;;;;;19.90;80.70;;;;;;5050811;28;19968;-68
2022/08/24 01:50:41;;;;;;;;;;;19.90;80.50;;;;;;5032643;28;19921;-68
2022/08/24 01:53:07;;;;;;;;;;;19.90;80.30;;;;;;5050871;28;19921;-68
2022/08/24 01:55:33;;;;;;;;;;;20.00;80.40;;;;;;5050782;28;19960;-68
2022/08/24 01:57:59;;;;;;;;;;;19.90;80.30;;;;;;5051734;28;19931;-68
2022/08/24 02:00:25;;;;;;;;;;;19.90;81.20;;;;;;5034694;28;20035;-68
2022/08/24 02:02:51;;;;;;;;;;;19.90;81.10;;;;;;5047033;28;19921;-69
2022/08/24 02:05:17;;;;;;;;;;;19.90;80.70;;;;;;5051694;28;19935;-68
2022/08/24 02:07:43;;;;;;;;;;;19.90;81.00;;;;;;5049982;28;19920;-68
2022/08/24 02:10:09;;;;;;;;;;;19.90;81.10;;;;;;5038292;28;20385;-69
2022/08/24 02:12:35;;;;;;;;;;;19.90;81.40;;;;;;5034642;28;19921;-69
2022/08/24 02:15:01;;;;;;;;;;;19.80;81.60;;;;;;5033103;28;20267;-68
2022/08/24 02:17:27;;;;;;;;;;;19.80;81.50;;;;;;5031585;28;19921;-69
2022/08/24 02:19:52;;;;;;;;;;;19.80;81.70;;;;;;5015795;28;19921;-68
2022/08/24 02:22:18;;;;;;;;;;;19.80;81.10;;;;;;5037211;28;19924;-69
2022/08/24 02:24:44;;;;;;;;;;;19.80;81.00;;;;;;5050999;28;20003;-68
2022/08/24 02:27:09;;;;;;;;;;;19.80;80.90;;;;;;5044519;28;19932;-68
2022/08/24 02:29:35;;;;;;;;;;;19.80;81.20;;;;;;5029324;28;19928;-69
2022/08/24 02:32:00;;;;;;;;;;;19.80;81.10;;;;;;5035061;28;19959;-69
2022/08/24 02:34:26;;;;;;;;;;;19.80;81.00;;;;;;5051183;28;20033;-69
2022/08/24 02:36:52;;;;;;;;;;;19.70;80.90;;;;;;5035144;28;20517;-68
2022/08/24 02:39:18;;;;;;;;;;;19.80;80.90;;;;;;5028480;28;19972;-69
2022/08/24 02:41:43;;;;;;;;;;;19.80;80.90;;;;;;5028823;28;19963;-68
2022/08/24 02:44:09;;;;;;;;;;;19.80;80.80;;;;;;5029322;28;19929;-69
2022/08/24 02:46:35;;;;;;;;;;;19.70;80.90;;;;;;5018685;28;19924;-69
2022/08/24 02:49:01;;;;;;;;;;;19.70;81.10;;;;;;5018126;28;19921;-69
2022/08/24 02:51:31;;;;;;;;;;;19.80;81.40;;;;;;5050719;28;19974;-69
2022/08/24 02:53:57;;;;;;;;;;;19.80;81.70;;;;;;5051286;28;20279;-68
2022/08/24 02:56:23;;;;;;;;;;;19.80;82.30;;;;;;5031575;28;19932;-69
2022/08/24 02:58:48;;;;;;;;;;;19.70;82.00;;;;;;5028393;28;19921;-69
2022/08/24 03:01:14;;;;;;;;;;;19.80;81.50;;;;;;5031152;28;19921;-68
2022/08/24 03:03:40;;;;;;;;;;;19.80;81.70;;;;;;5028580;28;20374;-69
2022/08/24 03:06:06;;;;;;;;;;;19.70;81.80;;;;;;5020097;28;19955;-69
2022/08/24 03:08:31;;;;;;;;;;;19.70;81.80;;;;;;5010901;28;19922;-68
2022/08/24 03:10:59;;;;;;;;;;;19.80;81.60;;;;;;5014638;28;20262;-68
2022/08/24 03:13:25;;;;;;;;;;;19.70;81.60;;;;;;5028609;28;20039;-68
2022/08/24 03:15:51;;;;;;;;;;;19.70;81.70;;;;;;5015697;28;19933;-68
2022/08/24 03:18:16;;;;;;;;;;;19.70;81.50;;;;;;5029149;28;19925;-68
2022/08/24 03:20:42;;;;;;;;;;;19.70;82.00;;;;;;5030341;28;19978;-69
2022/08/24 03:23:08;;;;;;;;;;;19.80;82.00;;;;;;5033615;28;19921;-68
2022/08/24 03:25:33;;;;;;;;;;;19.70;82.30;;;;;;5025815;28;19967;-69
2022/08/24 03:27:59;;;;;;;;;;;19.80;82.30;;;;;;5049804;28;19925;-69
2022/08/24 03:30:24;;;;;;;;;;;19.70;82.00;;;;;;5062469;28;19924;-69
2022/08/24 03:32:50;;;;;;;;;;;19.70;81.80;;;;;;5048591;28;19921;-68
2022/08/24 03:35:16;;;;;;;;;;;19.70;81.70;;;;;;5014513;28;20378;-69
2022/08/24 03:37:41;;;;;;;;;;;19.70;81.60;;;;;;5024381;28;19921;-68
2022/08/24 03:40:08;;;;;;;;;;;19.70;81.50;;;;;;5029299;28;19971;-69
2022/08/24 03:42:33;;;;;;;;;;;19.70;81.70;;;;;;5045499;28;19921;-69
2022/08/24 03:44:59;;;;;;;;;;;19.70;81.70;;;;;;5023498;28;19944;-69
2022/08/24 03:47:25;;;;;;;;;;;19.70;81.80;;;;;;5035395;28;19928;-68
2022/08/24 03:49:50;;;;;;;;;;;19.70;81.70;;;;;;5030668;28;19921;-68
2022/08/24 03:52:16;;;;;;;;;;;19.70;81.80;;;;;;5027175;28;19921;-69
2022/08/24 03:54:41;;;;;;;;;;;19.70;81.80;;;;;;5024528;28;19975;-70
2022/08/24 03:57:07;;;;;;;;;;;19.70;81.90;;;;;;5029051;28;19924;-69
2022/08/24 03:59:32;;;;;;;;;;;19.70;82.00;;;;;;5026785;28;19921;-68
2022/08/24 04:01:58;;;;;;;;;;;19.70;82.00;;;;;;5029374;28;19964;-69
2022/08/24 04:04:24;;;;;;;;;;;19.60;81.80;;;;;;5029308;28;20332;-68
2022/08/24 04:06:49;;;;;;;;;;;19.60;82.00;;;;;;5029499;28;19966;-68
2022/08/24 04:09:15;;;;;;;;;;;19.70;82.00;;;;;;5027817;28;19921;-68
2022/08/24 04:11:42;;;;;;;;;;;19.70;82.00;;;;;;5016410;28;20409;-68
2022/08/24 04:14:08;;;;;;;;;;;19.60;81.90;;;;;;5048387;28;19928;-68
2022/08/24 04:16:34;;;;;;;;;;;19.70;81.80;;;;;;5039058;28;19921;-68
2022/08/24 04:18:59;;;;;;;;;;;19.70;81.90;;;;;;5026486;28;19936;-68
2022/08/24 04:21:26;;;;;;;;;;;19.70;82.10;;;;;;5012074;28;19936;-68
2022/08/24 04:23:52;;;;;;;;;;;19.70;82.00;;;;;;5048208;28;19979;-68
2022/08/24 04:26:20;;;;;;;;;;;19.60;82.00;;;;;;5036299;28;19972;-69
2022/08/24 04:28:46;;;;;;;;;;;19.60;81.80;;;;;;5029008;28;19979;-68
2022/08/24 04:31:13;;;;;;;;;;;19.60;81.70;;;;;;5012617;28;19995;-68
2022/08/24 04:33:39;;;;;;;;;;;19.60;81.80;;;;;;5047213;28;19954;-69
2022/08/24 04:36:06;;;;;;;;;;;19.60;81.90;;;;;;5042063;28;20012;-69
2022/08/24 04:38:32;;;;;;;;;;;19.50;82.10;;;;;;5022954;28;19975;-68
2022/08/24 04:40:57;;;;;;;;;;;19.50;82.20;;;;;;5015894;28;20048;-69
2022/08/24 04:43:24;;;;;;;;;;;19.50;82.50;;;;;;5045989;28;19989;-68
2022/08/24 04:45:50;;;;;;;;;;;19.50;82.60;;;;;;5044925;28;20036;-68
2022/08/24 04:48:16;;;;;;;;;;;19.50;82.60;;;;;;5033798;28;20020;-68
2022/08/24 04:50:42;;;;;;;;;;;19.50;82.70;;;;;;5032806;28;19921;-68
2022/08/24 04:53:09;;;;;;;;;;;19.50;82.70;;;;;;5026861;28;20394;-68
2022/08/24 04:55:42;;;;;;;;;;;19.50;82.70;;;;;;5032284;28;19964;-68
2022/08/24 04:58:08;;;;;;;;;;;19.50;82.50;;;;;;5032712;28;19960;-68
2022/08/24 05:00:34;;;;;;;;;;;19.40;82.50;;;;;;5032664;28;20520;-68
2022/08/24 05:02:59;;;;;;;;;;;19.30;82.50;;;;;;5035526;28;19970;-68
2022/08/24 05:05:25;;;;;;;;;;;19.40;82.80;;;;;;5033014;28;20352;-69
2022/08/24 05:07:50;;;;;;;;;;;19.30;82.70;;;;;;5019663;28;19921;-69
2022/08/24 05:10:16;;;;;;;;;;;19.20;82.50;;;;;;5036046;28;20008;-69
2022/08/24 05:12:42;;;;;;;;;;;19.20;82.40;;;;;;5035264;28;19921;-70
2022/08/24 05:15:08;;;;;;;;;;;19.20;82.30;;;;;;5026167;28;19932;-69
2022/08/24 05:17:33;;;;;;;;;;;19.10;82.30;;;;;;5027315;28;19922;-69
2022/08/24 05:19:59;;;;;;;;;;;19.20;82.50;;;;;;5028034;28;19924;-69
2022/08/24 05:22:24;;;;;;;;;;;19.20;82.50;;;;;;5034338;28;19976;-70
2022/08/24 05:24:50;;;;;;;;;;;19.20;82.60;;;;;;5043362;28;19928;-69
2022/08/24 05:27:16;;;;;;;;;;;19.30;82.50;;;;;;5031929;28;20369;-69
2022/08/24 05:29:41;;;;;;;;;;;19.30;82.60;;;;;;5027968;28;20453;-69
2022/08/24 05:32:07;;;;;;;;;;;19.30;82.60;;;;;;5012567;28;19968;-70
2022/08/24 05:34:32;;;;;;;;;;;19.30;82.80;;;;;;5035558;28;19924;-69
2022/08/24 05:36:57;;;;;;;;;;;19.40;82.80;;;;;;5047848;28;19921;-69
2022/08/24 05:39:23;;;;;;;;;;;19.50;82.90;;;;;;5018973;28;19925;-69
2022/08/24 05:41:48;;;;;;;;;;;19.50;83.10;;;;;;5024637;28;19921;-69
2022/08/24 05:44:15;;;;;;;;;;;19.50;83.10;;;;;;5046612;28;19921;-68
2022/08/24 05:46:41;;;;;;;;;;;19.60;83.10;;;;;;5032388;28;19924;-69
2022/08/24 05:49:07;;;;;;;;;;;19.60;83.30;;;;;;5030403;28;19921;-69
2022/08/24 05:51:34;;;;;;;;;;;19.60;83.30;;;;;;5026300;28;19929;-68
2022/08/24 05:53:59;;;;;;;;;;;19.70;83.30;;;;;;5029199;28;19924;-68
2022/08/24 05:56:25;;;;;;;;;;;19.70;83.50;;;;;;5030888;28;19925;-68
2022/08/24 05:58:50;;;;;;;;;;;19.80;83.20;;;;;;5024848;28;20378;-69
2022/08/24 06:01:21;;;;;;;;;;;19.80;83.10;;;;;;5022912;28;20422;-68
2022/08/24 06:03:47;;;;;;;;;;;19.80;83.30;;;;;;5058075;28;20413;-69
2022/08/24 06:06:13;;;;;;;;;;;19.90;83.50;;;;;;5036781;28;19935;-68
2022/08/24 06:08:44;;;;;;;;;;;19.90;83.40;;;;;;5040428;28;19932;-68
2022/08/24 06:11:10;;;;;;;;;;;20.00;83.40;;;;;;5028009;28;19960;-68
2022/08/24 06:13:36;;;;;;;;;;;20.00;83.40;;;;;;5044990;28;20002;-68
2022/08/24 06:16:11;;;;;;;;;;;20.10;83.60;;;;;;5030257;28;19921;-68
2022/08/24 06:18:37;;;;;;;;;;;20.10;84.00;;;;;;5027337;28;20430;-68
2022/08/24 06:21:07;;;;;;;;;;;20.10;84.00;;;;;;5029057;28;19924;-69
2022/08/24 06:23:34;;;;;;;;;;;20.20;84.00;;;;;;5043791;28;19928;-68
2022/08/24 06:28:44;;;;;;;;;;;20.30;84.10;;;;;;5031210;28;19921;-68
2022/08/24 06:31:09;;;;;;;;;;;20.40;84.10;;;;;;5030391;28;19929;-68
2022/08/24 06:33:35;;;;;;;;;;;20.50;84.10;;;;;;5030959;28;20058;-68
2022/08/24 06:36:00;;;;;;;;;;;20.50;84.20;;;;;;5027783;28;19928;-67
2022/08/24 06:38:26;;;;;;;;;;;20.60;84.10;;;;;;5029109;28;19995;-69
2022/08/24 06:40:52;;;;;;;;;;;20.60;84.00;;;;;;5029552;28;19924;-68
2022/08/24 06:43:17;;;;;;;;;;;20.70;84.20;;;;;;5027761;28;19928;-69
2022/08/24 06:45:43;;;;;;;;;;;20.80;84.40;;;;;;5035411;28;20008;-68
2022/08/24 06:48:09;;;;;;;;;;;20.80;84.40;;;;;;5029553;28;19972;-69
2022/08/24 06:50:34;;;;;;;;;;;20.90;84.20;;;;;;5028234;28;19932;-69
2022/08/24 06:53:00;;;;;;;;;;;21.00;83.80;;;;;;5030079;28;20291;-68
2022/08/24 06:55:26;;;;;;;;;;;21.00;83.60;;;;;;5028553;28;19931;-68
2022/08/24 06:57:52;;;;;;;;;;;21.10;83.20;;;;;;5029283;28;19925;-68
2022/08/24 07:00:18;;;;;;;;;;;21.10;82.80;;;;;;5023878;28;19932;-68
2022/08/24 07:02:43;;;;;;;;;;;21.20;82.60;;;;;;5023201;28;19921;-67
2022/08/24 07:05:09;;;;;;;;;;;21.20;82.30;;;;;;5039792;28;19921;-68
2022/08/24 07:07:34;;;;;;;;;;;21.30;82.20;;;;;;5042051;28;19927;-68
2022/08/24 07:10:00;;;;;;;;;;;21.40;82.10;;;;;;5028080;28;20448;-67
2022/08/24 07:12:26;;;;;;;;;;;21.50;81.80;;;;;;5019927;28;19921;-68
2022/08/24 07:14:51;;;;;;;;;;;21.50;81.70;;;;;;5023893;28;20387;-67
2022/08/24 07:17:17;;;;;;;;;;;21.60;81.70;;;;;;5021253;28;20012;-67
2022/08/24 07:19:44;;;;;;;;;;;21.60;81.50;;;;;;5027923;28;20591;-68
2022/08/24 07:22:11;;;;;;;;;;;21.70;81.30;;;;;;5037790;28;20008;-68
2022/08/24 07:24:36;;;;;;;;;;;21.80;81.20;;;;;;5033005;28;19932;-69
2022/08/24 07:27:02;;;;;;;;;;;21.80;81.00;;;;;;5032288;28;19921;-68
2022/08/24 07:29:27;;;;;;;;;;;21.90;81.00;;;;;;5029190;28;19925;-69
2022/08/24 07:31:53;;;;;;;;;;;22.00;81.00;;;;;;5028142;28;19928;-68
2022/08/24 07:34:18;;;;;;;;;;;22.00;81.10;;;;;;5047438;28;20443;-69
2022/08/24 07:36:44;;;;;;;;;;;22.00;81.00;;;;;;5041532;28;20011;-69
2022/08/24 07:39:09;;;;;;;;;;;22.10;80.80;;;;;;5041791;28;19998;-69
2022/08/24 07:41:42;;;;;;;;;;;22.10;80.70;;;;;;5023685;28;20378;-69
2022/08/24 07:44:08;;;;;;;;;;;22.20;80.80;;;;;;5031818;28;19990;-69
2022/08/24 07:46:34;;;;;;;;;;;22.30;80.50;;;;;;5037935;28;20382;-68
2022/08/24 07:48:59;;;;;;;;;;;22.40;80.30;;;;;;5038057;28;19936;-68
2022/08/24 07:51:26;;;;;;;;;;;22.40;80.10;;;;;;5026529;28;19921;-67
2022/08/24 07:53:51;;;;;;;;;;;22.40;80.10;;;;;;5036343;28;19925;-67
2022/08/24 07:56:17;;;;;;;;;;;22.50;79.90;;;;;;5034042;28;20786;-68
2022/08/24 07:58:43;;;;;;;;;;;22.50;79.80;;;;;;5034650;28;19974;-68
2022/08/24 08:01:08;;;;;;;;;;;22.60;79.80;;;;;;5030619;28;19924;-68
2022/08/24 08:03:34;;;;;;;;;;;22.70;79.60;;;;;;5046687;28;19921;-68
2022/08/24 08:06:01;;;;;;;;;;;22.80;79.50;;;;;;5048522;28;19925;-68
2022/08/24 08:08:26;;;;;;;;;;;22.80;79.10;;;;;;5048897;28;20003;-68
2022/08/24 08:10:52;;;;;;;;;;;22.80;78.80;;;;;;5049186;28;20007;-67
2022/08/24 08:13:18;;;;;;;;;;;22.80;78.80;;;;;;5045652;28;19983;-67
2022/08/24 08:15:43;;;;;;;;;;;22.90;78.70;;;;;;5042934;28;19927;-68
2022/08/24 08:18:09;;;;;;;;;;;23.00;78.70;;;;;;5020776;28;20038;-67
2022/08/24 08:20:36;;;;;;;;;;;23.00;78.30;;;;;;5051153;28;19921;-68
2022/08/24 08:25:47;;;;;;;;;;;23.20;78.40;;;;;;5038847;28;19925;-69
2022/08/24 08:28:12;;;;;;;;;;;23.20;78.20;;;;;;5026724;28;19956;-69
2022/08/24 08:30:40;;;;;;;;;;;23.20;77.50;;;;;;5021245;28;19976;-73
2022/08/24 08:33:06;;;;;;;;;;;23.30;77.00;;;;;;5028205;28;19975;-73
2022/08/24 08:35:32;;;;;;;;;;;23.30;77.00;;;;;;5030590;28;19925;-68
2022/08/24 08:37:58;;;;;;;;;;;23.40;77.00;;;;;;5035032;28;19921;-67
2022/08/24 08:40:44;;;;;;;;;;;23.50;77.30;;;;;;5022360;28;19928;-68
2022/08/24 08:43:23;;;;;;;;;;;23.50;77.20;;;;;;5007342;28;19920;-68
2022/08/24 08:45:55;;;;;;;;;;;23.60;77.00;;;;;;5016253;28;20662;-69
2022/08/24 08:48:39;;;;;;;;;;;23.60;76.90;;;;;;5015522;28;20095;-70
2022/08/24 08:51:05;;;;;;;;;;;23.70;76.60;;;;;;5010530;28;19922;-68
2022/08/24 08:53:30;;;;;;;;;;;23.70;76.60;;;;;;5011237;28;19921;-69
2022/08/24 08:55:58;;;;;;;;;;;23.80;76.60;;;;;;5026947;28;19979;-69
2022/08/24 08:58:42;;;;;;;;;;;23.80;76.60;;;;;;5019612;28;19926;-68
2022/08/24 09:01:17;;;;;;;;;;;23.90;76.50;;;;;;5018801;28;20298;-69
2022/08/24 09:03:53;;;;;;;;;;;24.00;76.60;;;;;;5014459;28;19944;-68
2022/08/24 09:06:36;;;;;;;;;;;24.00;76.50;;;;;;5053441;28;19979;-69
2022/08/24 09:09:05;;;;;;;;;;;24.10;76.20;;;;;;5017304;28;19921;-68
2022/08/24 09:11:56;;;;;;;;;;;24.10;75.80;;;;;;5027025;28;19921;-68
2022/08/24 09:14:24;;;;;;;;;;;24.20;75.40;;;;;;5039122;28;20576;-68
2022/08/24 09:16:59;;;;;;;;;;;24.30;75.50;;;;;;5032811;28;20814;-69
2022/08/24 09:19:33;;;;;;;;;;;24.30;75.50;;;;;;5027792;28;19990;-66
2022/08/24 09:21:58;;;;;;;;;;;24.30;75.10;;;;;;5028112;28;20032;-67
2022/08/24 09:24:39;;;;;;;;;;;24.50;75.10;;;;;;5031322;28;20445;-67
2022/08/24 09:27:11;;;;;;;;;;;24.50;74.60;;;;;;5033596;28;19991;-71
2022/08/24 09:29:40;;;;;;;;;;;24.50;74.80;;;;;;5030759;28;19921;-71
2022/08/24 09:32:11;;;;;;;;;;;24.50;74.60;;;;;;5016917;28;19921;-71
2022/08/24 09:34:58;;;;;;;;;;;24.60;74.80;;;;;;5033894;28;19921;-71
2022/08/24 09:37:27;;;;;;;;;;;24.70;74.20;;;;;;5051608;28;19925;-72
2022/08/24 09:39:52;;;;;;;;;;;24.70;74.40;;;;;;5030660;28;20905;-71
2022/08/24 09:42:37;;;;;;;;;;;24.80;74.50;;;;;;5028944;28;19925;-71
2022/08/24 09:45:25;;;;;;;;;;;24.80;74.40;;;;;;5022653;28;19920;-71
2022/08/24 09:47:59;;;;;;;;;;;24.90;74.00;;;;;;5015548;28;19969;-71
2022/08/24 09:50:31;;;;;;;;;;;25.00;74.10;;;;;;5025695;28;20012;-71
2022/08/24 09:52:59;;;;;;;;;;;25.00;73.60;;;;;;5027191;28;20009;-70
2022/08/24 09:55:34;;;;;;;;;;;25.00;73.70;;;;;;5045561;28;19928;-71
2022/08/24 09:58:11;;;;;;;;;;;25.10;73.70;;;;;;5029479;28;20011;-70
2022/08/24 10:00:47;;;;;;;;;;;25.10;72.80;;;;;;5026115;28;20378;-71
2022/08/24 10:03:23;;;;;;;;;;;25.20;72.30;;;;;;5031731;28;19924;-70
2022/08/24 10:06:00;;;;;;;;;;;25.20;73.00;;;;;;5028627;28;19921;-70
2022/08/24 10:08:38;;;;;;;;;;;25.20;72.50;;;;;;5025871;28;19931;-69
2022/08/24 10:11:12;;;;;;;;;;;25.20;72.80;;;;;;5029051;28;20382;-67
2022/08/24 10:13:47;;;;;;;;;;;25.30;72.90;;;;;;5010925;28;20389;-68
2022/08/24 10:16:22;;;;;;;;;;;25.30;71.50;;;;;;5019886;28;19921;-68
2022/08/24 10:19:07;;;;;;;;;;;25.30;72.50;;;;;;5018919;28;20366;-69
2022/08/24 10:21:59;;;;;;;;;;;25.50;72.60;;;;;;5007837;28;20016;-68
2022/08/24 10:24:31;;;;;;;;;;;25.50;72.60;;;;;;5027192;28;19997;-68
2022/08/24 10:26:56;;;;;;;;;;;25.50;71.70;;;;;;5033649;28;19921;-68
2022/08/24 10:29:31;;;;;;;;;;;25.60;71.00;;;;;;5026346;28;20409;-69
2022/08/24 10:32:06;;;;;;;;;;;25.60;71.00;;;;;;5020965;28;19943;-69
2022/08/24 10:34:40;;;;;;;;;;;25.70;70.80;;;;;;5004206;28;19921;-70
2022/08/24 10:37:24;;;;;;;;;;;25.80;70.90;;;;;;5016461;28;19925;-67
2022/08/24 10:39:53;;;;;;;;;;;25.80;70.30;;;;;;5019810;28;20012;-68
2022/08/24 10:45:14;;;;;;;;;;;25.90;70.50;;;;;;5012434;28;19921;-69
2022/08/24 10:47:51;;;;;;;;;;;25.90;69.80;;;;;;5020050;28;20332;-68
2022/08/24 10:50:43;;;;;;;;;;;25.90;68.90;;;;;;5028268;28;19925;-68
2022/08/24 10:53:13;;;;;;;;;;;26.00;69.10;;;;;;5029348;28;19972;-68
2022/08/24 10:55:39;;;;;;;;;;;26.00;68.50;;;;;;5013178;28;19925;-68
2022/08/24 10:58:19;;;;;;;;;;;26.00;68.90;;;;;;5017469;28;19925;-70
2022/08/24 11:00:45;;;;;;;;;;;26.00;68.30;;;;;;5021159;28;19927;-69
2022/08/24 11:03:10;;;;;;;;;;;26.00;68.30;;;;;;5011255;28;19922;-68
2022/08/24 11:05:40;;;;;;;;;;;26.00;67.30;;;;;;5014861;28;19932;-69
2022/08/24 11:08:06;;;;;;;;;;;26.10;67.20;;;;;;5024634;28;20012;-69
2022/08/24 11:10:36;;;;;;;;;;;26.10;65.50;;;;;;5014552;28;20371;-69
2022/08/24 11:13:17;;;;;;;;;;;26.10;67.10;;;;;;4998096;28;20798;-68
2022/08/24 11:15:46;;;;;;;;;;;26.10;67.10;;;;;;5027672;28;19931;-68
2022/08/24 11:18:12;;;;;;;;;;;26.30;67.50;;;;;;5031218;28;19927;-67
2022/08/24 11:20:43;;;;;;;;;;;26.30;66.50;;;;;;5028022;28;20378;-68
2022/08/24 11:23:13;;;;;;;;;;;26.40;66.30;;;;;;5025476;28;19936;-67
2022/08/24 11:25:42;;;;;;;;;;;26.40;66.60;;;;;;5018065;28;19925;-69
2022/08/24 11:28:15;;;;;;;;;;;26.50;66.20;;;;;;5022180;28;20382;-67
2022/08/24 11:30:41;;;;;;;;;;;26.50;65.20;;;;;;5016405;28;19921;-69
2022/08/24 11:33:24;;;;;;;;;;;26.50;65.00;;;;;;5016151;28;19931;-68
2022/08/24 11:35:50;;;;;;;;;;;26.70;65.40;;;;;;5028321;28;20012;-68
2022/08/24 11:38:20;;;;;;;;;;;26.70;65.30;;;;;;5021260;28;20056;-68
2022/08/24 11:40:58;;;;;;;;;;;26.80;65.20;;;;;;5009423;28;19925;-70
2022/08/24 11:43:53;;;;;;;;;;;26.80;64.70;;;;;;5042162;28;19925;-70
2022/08/24 11:46:24;;;;;;;;;;;26.90;65.00;;;;;;4984692;28;20637;-70
2022/08/24 11:49:08;;;;;;;;;;;26.90;64.90;;;;;;5027251;28;19925;-70
2022/08/24 11:51:40;;;;;;;;;;;27.00;64.00;;;;;;5024128;28;20357;-71
2022/08/24 11:54:08;;;;;;;;;;;27.00;64.00;;;;;;5025149;28;19921;-71
2022/08/24 11:56:44;;;;;;;;;;;27.10;64.10;;;;;;5021884;28;19978;-72
2022/08/24 11:59:39;;;;;;;;;;;27.20;63.90;;;;;;5028142;28;20008;-71
2022/08/24 12:02:10;;;;;;;;;;;27.20;62.30;;;;;;5006088;28;19929;-71
2022/08/24 12:04:47;;;;;;;;;;;27.10;64.00;;;;;;5028649;28;20008;-71
2022/08/24 12:07:25;;;;;;;;;;;27.10;62.70;;;;;;5017591;28;19921;-71
2022/08/24 12:09:51;;;;;;;;;;;27.20;63.50;;;;;;5036820;28;20366;-72
2022/08/24 12:12:40;;;;;;;;;;;27.20;62.70;;;;;;5022118;28;19968;-72
2022/08/24 12:15:05;;;;;;;;;;;27.20;63.60;;;;;;5009086;28;19921;-69
2022/08/24 12:17:37;;;;;;;;;;;27.30;62.80;;;;;;5016007;28;20386;-68
2022/08/24 12:20:08;;;;;;;;;;;27.30;62.50;;;;;;5021922;28;19929;-68
2022/08/24 12:22:34;;;;;;;;;;;27.30;60.70;;;;;;5009421;28;20480;-72
2022/08/24 12:25:01;;;;;;;;;;;27.30;62.20;;;;;;5011200;28;19921;-69
2022/08/24 12:27:34;;;;;;;;;;;27.40;61.60;;;;;;5024647;28;19975;-69
2022/08/24 12:30:02;;;;;;;;;;;27.40;60.70;;;;;;5037025;28;19964;-69
2022/08/24 12:32:40;;;;;;;;;;;27.50;61.80;;;;;;5040330;28;19955;-69
2022/08/24 12:35:20;;;;;;;;;;;27.60;62.70;;;;;;5029334;28;19929;-69
2022/08/24 12:37:48;;;;;;;;;;;27.60;61.80;;;;;;5017630;28;19921;-69
2022/08/24 12:40:29;;;;;;;;;;;27.70;61.50;;;;;;5013794;28;19990;-69
2022/08/24 12:42:59;;;;;;;;;;;27.70;61.70;;;;;;5021909;28;19928;-69
2022/08/24 12:45:25;;;;;;;;;;;27.80;61.80;;;;;;5024406;28;19935;-69
2022/08/24 12:47:57;;;;;;;;;;;27.90;61.30;;;;;;5026090;28;20386;-69
2022/08/24 12:50:45;;;;;;;;;;;28.00;60.70;;;;;;5022300;28;19964;-69
2022/08/24 12:53:10;;;;;;;;;;;28.00;60.90;;;;;;5033205;28;20305;-69
2022/08/24 12:56:02;;;;;;;;;;;28.10;61.20;;;;;;5047152;28;19921;-67
2022/08/24 12:58:28;;;;;;;;;;;28.20;61.30;;;;;;5008128;28;20693;-68
2022/08/24 13:00:54;;;;;;;;;;;28.20;59.00;;;;;;5025835;28;19921;-69
2022/08/24 13:03:37;;;;;;;;;;;28.30;60.30;;;;;;5017053;28;19921;-68
2022/08/24 13:06:05;;;;;;;;;;;28.30;59.00;;;;;;5013260;28;19929;-69
2022/08/24 13:08:33;;;;;;;;;;;28.40;60.60;;;;;;5019672;28;19928;-68
2022/08/24 13:11:03;;;;;;;;;;;28.40;57.60;;;;;;5017406;28;20386;-68
2022/08/24 13:14:03;;;;;;;;;;;28.50;60.10;;;;;;5015801;28;19925;-69
2022/08/24 13:16:47;;;;;;;;;;;28.60;59.10;;;;;;5021710;28;19931;-69
2022/08/24 13:19:22;;;;;;;;;;;28.60;58.10;;;;;;5018751;28;19925;-68
2022/08/24 13:21:50;;;;;;;;;;;28.80;58.30;;;;;;5027343;28;20658;-68
2022/08/24 13:24:27;;;;;;;;;;;28.90;58.90;;;;;;5028167;28;20488;-68
2022/08/24 13:26:54;;;;;;;;;;;29.00;57.60;;;;;;5031187;28;19925;-69
2022/08/24 13:29:20;;;;;;;;;;;29.20;59.10;;;;;;5025805;28;19936;-70
2022/08/24 13:31:52;;;;;;;;;;;29.30;57.70;;;;;;5030652;28;19929;-68
2022/08/24 13:34:20;;;;;;;;;;;29.30;56.30;;;;;;5032683;28;19937;-69
2022/08/24 13:36:46;;;;;;;;;;;29.40;58.00;;;;;;5029867;28;19956;-68
2022/08/24 13:39:31;;;;;;;;;;;29.40;56.80;;;;;;5031181;28;19972;-69
2022/08/24 13:42:09;;;;;;;;;;;29.50;57.40;;;;;;5013108;28;19921;-69
2022/08/24 13:44:44;;;;;;;;;;;29.50;55.40;;;;;;5040304;28;20047;-69
2022/08/24 13:47:09;;;;;;;;;;;29.50;54.60;;;;;;5026160;28;19925;-69
2022/08/24 13:49:43;;;;;;;;;;;29.70;54.40;;;;;;5035382;28;19921;-68
2022/08/24 13:52:14;;;;;;;;;;;29.80;55.60;;;;;;5037636;28;19925;-69
2022/08/24 13:54:39;;;;;;;;;;;29.90;55.10;;;;;;5040489;28;20005;-69
2022/08/24 13:57:23;;;;;;;;;;;30.00;52.20;;;;;;5037242;28;20012;-68
2022/08/24 13:59:54;;;;;;;;;;;30.00;52.90;;;;;;5048060;28;20448;-69
2022/08/24 14:02:37;;;;;;;;;;;30.00;54.30;;;;;;5046449;28;20471;-69
2022/08/24 14:05:11;;;;;;;;;;;30.10;54.00;;;;;;5042170;28;19963;-69
2022/08/24 14:07:49;;;;;;;;;;;30.30;53.30;;;;;;5036055;28;20380;-69
2022/08/24 14:10:16;;;;;;;;;;;30.40;54.50;;;;;;5044341;28;19920;-69
2022/08/24 14:12:55;;;;;;;;;;;30.60;54.20;;;;;;5045439;28;19990;-69
2022/08/24 14:15:23;;;;;;;;;;;30.70;51.90;;;;;;5041471;28;19921;-69
2022/08/24 14:18:08;;;;;;;;;;;30.70;50.30;;;;;;5050973;28;20047;-69
2022/08/24 14:20:47;;;;;;;;;;;30.70;49.40;;;;;;5049349;28;19928;-69
2022/08/24 14:23:21;;;;;;;;;;;30.90;51.70;;;;;;5042756;28;20040;-69
2022/08/24 14:25:48;;;;;;;;;;;31.00;48.00;;;;;;5043146;28;19932;-69
2022/08/24 14:28:28;;;;;;;;;;;31.00;51.40;;;;;;5040142;28;20298;-69
2022/08/24 14:31:12;;;;;;;;;;;31.10;48.60;;;;;;5053906;28;19968;-69
2022/08/24 14:33:44;;;;;;;;;;;31.10;46.40;;;;;;5031885;28;19929;-69
2022/08/24 14:36:16;;;;;;;;;;;31.30;49.20;;;;;;5049207;28;19924;-69
2022/08/24 14:38:48;;;;;;;;;;;31.50;47.70;;;;;;5036443;28;19939;-68